This is the latest recevied weather packets stored in our database for station/object KI2K. If no packets are shown the sender has not sent any weather packets the latest 10 day(s).
| Time | Temp. | Humidity | Pressure | Rain* | Wind** | Luminosity | Snow |
|---|---|---|---|---|---|---|---|
| 1777905080 | 18.89° C | 70% | 1006.8 hPa | 0 mm | - | 331 W/m² | - |
| 1777904777 | 18.89° C | 70% | 1007.2 hPa | 0 mm | - | 298 W/m² | - |
| 1777904474 | 18.89° C | 70% | 1006.9 hPa | 0 mm | - | 253 W/m² | - |
| 1777904170 | 18.33° C | 71% | 1007.2 hPa | 0 mm | - | 390 W/m² | - |
| 1777903867 | 18.33° C | 71% | 1007.1 hPa | 0 mm | - | 400 W/m² | - |
| 1777903564 | 18.33° C | 71% | 1007.2 hPa | 0 mm | - | 364 W/m² | - |
| 1777903260 | 17.78° C | 73% | 1007 hPa | 0 mm | - | 339 W/m² | - |
| 1777902956 | 17.22° C | 74% | 1007.2 hPa | 0 mm | - | 246 W/m² | - |
| 1777902653 | 17.22° C | 74% | 1007.4 hPa | 0 mm | - | 319 W/m² | - |
| 1777902351 | 17.22° C | 74% | 1007.3 hPa | 0 mm | - | 284 W/m² | - |
| 1777902047 | 16.67° C | 75% | 1007.4 hPa | 0 mm | - | 285 W/m² | - |
| 1777901746 | 16.67° C | 75% | 1007.2 hPa | 0 mm | - | 286 W/m² | - |
| 1777901443 | 16.11° C | 76% | 1007.5 hPa | 0 mm | - | 293 W/m² | - |
| 1777901140 | 15.56° C | 77% | 1007.7 hPa | 0 mm | - | 307 W/m² | - |
| 1777900838 | 15.56° C | 78% | 1007.5 hPa | 0 mm | - | 271 W/m² | - |
| 1777900535 | 15° C | 78% | 1007.5 hPa | 0 mm | - | 167 W/m² | - |
| 1777900232 | 15° C | 78% | 1007.3 hPa | 0 mm | - | 142 W/m² | - |
| 1777899928 | 15° C | 78% | 1007.4 hPa | 0 mm | - | 145 W/m² | - |
| 1777899626 | 15° C | 77% | 1007.4 hPa | 0 mm | - | 139 W/m² | - |
| 1777899323 | 15° C | 75% | 1007.2 hPa | 0 mm | - | 200 W/m² | - |
| 1777899021 | 13.89° C | 79% | 1007.2 hPa | 0 mm | - | 192 W/m² | - |
| 1777898717 | 13.33° C | 80% | 1007.4 hPa | 0 mm | - | 185 W/m² | - |
| 1777898415 | 13.33° C | 81% | 1007.2 hPa | 0 mm | - | 91 W/m² | - |
| 1777898112 | 13.33° C | 81% | 1007.2 hPa | 0 mm | - | 79 W/m² | - |
| 1777897809 | 13.33° C | 80% | 1007.2 hPa | 0 mm | - | 58 W/m² | - |
* Rain latest hour (hover to see other rain measurements)
** Current wind speed in m/s (hover to see current wind gust speed)